LESO/EAS METAR and TAF weather

Enter ICAO airport designator
Station Type Date Time Source
LESO METAR 2019/10/23 14:00 UTC NOAA

LESO 231400Z 03004KT 350V060 CAVOK 17/13 Q1005


Station Type Date Time Source
LESO Decoded METAR 2019/10/23 14:00 UTC NOAA

San Sebastian / Fuenterrabia, Spain (LESO) 43-21N 001-48W 8M
Oct 23, 2019 - 10:00 AM EDT / 2019.10.23 1400 UTC
Wind: from the NNE (030 degrees) at 5 MPH (4 KT) (direction variable):0
Visibility: greater than 7 mile(s):0
Temperature: 62 F (17 C)
Dew Point: 55 F (13 C)
Relative Humidity: 77%
Pressure (altimeter): 29.68 in. Hg (1005 hPa)
ob: LESO 231400Z 03004KT 350V060 CAVOK 17/13 Q1005
cycle: 14

Station Type Date Time Source
LESO TAF 2019/10/23 12:27 UTC NOAA

TAF LESO 231100Z 2312/2412 24009KT 9999 SCT025 TX18/2313Z TN10/2405Z
TEMPO 2312/2406 3000 RA BKN014 PROB40
TEMPO 2324/2403 1500 +RA BKN005 BKN010 PROB40
TEMPO 2318/2403 3000 SHRA TS SCT025TCU SCT030CB
TEMPO 2318/2406 23015G30KT

Example: see airport list